Time;durP1;ratioP1;P1;durP2;ratioP2;P2;SDS_P1;SDS_P2;PMS_P1;PMS_P2;Temp;Humidity;BMP_temperature;BMP_pressure;BME280_temperature;BME280_humidity;BME280_pressure;Samples;Min_cycle;Max_cycle;Signal;HPM_P1;HPM_P2
2021/06/16 00:02:05;;;;;;;1999.90;999.90;;;;;;;15.20;100.00;95442.59;5131960;27;20285;-61
2021/06/16 00:04:32;;;;;;;1999.90;999.90;;;;;;;15.21;100.00;95434.44;5131693;27;20195;-61
2021/06/16 00:07:00;;;;;;;1999.90;999.90;;;;;;;15.25;100.00;95432.69;5131889;27;20202;-60
2021/06/16 00:09:29;;;;;;;1999.90;999.90;;;;;;;15.24;100.00;95430.41;5131405;27;20198;-60
2021/06/16 00:11:56;;;;;;;1999.90;999.90;;;;;;;15.34;100.00;95441.22;5131543;27;20308;-60
2021/06/16 00:14:23;;;;;;;1999.90;999.90;;;;;;;15.32;100.00;95437.41;5131455;27;20191;-62
2021/06/16 00:16:51;;;;;;;1999.90;999.90;;;;;;;15.30;100.00;95440.34;5131627;27;20190;-61
2021/06/16 00:19:18;;;;;;;1999.90;999.90;;;;;;;15.29;100.00;95444.03;5131604;27;20222;-61
2021/06/16 00:21:46;;;;;;;1999.90;999.90;;;;;;;15.40;100.00;95439.16;5131438;27;20221;-61
2021/06/16 00:24:18;;;;;;;1999.90;999.90;;;;;;;15.44;100.00;95445.28;5131626;27;20190;-61
2021/06/16 00:26:47;;;;;;;1999.90;999.90;;;;;;;15.45;100.00;95437.09;5131469;27;20223;-62
2021/06/16 00:29:14;;;;;;;1999.90;999.90;;;;;;;15.43;100.00;95430.66;5131744;27;20204;-61
2021/06/16 00:31:41;;;;;;;1999.90;999.90;;;;;;;15.47;100.00;95429.69;5131881;27;20203;-61
2021/06/16 00:34:09;;;;;;;1999.90;999.90;;;;;;;15.55;99.99;95433.31;5131128;27;20199;-60
2021/06/16 00:36:36;;;;;;;1999.90;999.90;;;;;;;15.62;99.37;95428.31;5131237;27;20186;-61
2021/06/16 00:39:06;;;;;;;1999.90;999.90;;;;;;;15.58;99.00;95424.81;5131307;27;20230;-61
2021/06/16 00:41:33;;;;;;;1999.90;999.90;;;;;;;15.58;99.11;95422.22;5131259;27;20195;-61
2021/06/16 00:44:02;;;;;;;1999.90;999.90;;;;;;;15.56;99.09;95428.84;5130869;27;20194;-61
2021/06/16 00:46:29;;;;;;;1999.90;999.90;;;;;;;15.43;99.90;95428.81;5130961;27;20722;-60
2021/06/16 00:48:57;;;;;;;1999.90;999.90;;;;;;;15.37;99.71;95419.63;5131136;27;20554;-61
2021/06/16 00:51:24;;;;;;;1999.90;999.90;;;;;;;15.34;100.00;95419.53;5131040;27;20201;-61
2021/06/16 00:53:52;;;;;;;1999.90;999.90;;;;;;;15.29;100.00;95406.63;5131074;28;20203;-61
2021/06/16 00:56:19;;;;;;;1999.90;999.90;;;;;;;15.32;100.00;95400.75;5131296;27;20270;-61
2021/06/16 00:58:46;;;;;;;1999.90;999.90;;;;;;;15.33;100.00;95412.75;5130739;27;20222;-61
2021/06/16 01:01:19;;;;;;;1999.90;999.90;;;;;;;15.39;100.00;95401.72;5130818;28;20218;-61
2021/06/16 01:03:56;;;;;;;1999.90;999.90;;;;;;;15.39;100.00;95403.59;5131168;28;20186;-61
2021/06/16 01:06:27;;;;;;;1999.90;999.90;;;;;;;15.37;100.00;95406.53;5130970;28;20669;-61
2021/06/16 01:09:01;;;;;;;1999.90;999.90;;;;;;;15.33;100.00;95400.44;5130989;28;20611;-61
2021/06/16 01:11:31;;;;;;;1999.90;999.90;;;;;;;15.28;100.00;95399.88;5130626;28;20221;-61
2021/06/16 01:14:06;;;;;;;1999.90;999.90;;;;;;;15.24;100.00;95394.50;5130649;28;20198;-60
2021/06/16 01:16:41;;;;;;;1999.90;999.90;;;;;;;15.28;100.00;95389.41;5130741;28;20200;-61
2021/06/16 01:19:15;;;;;;;1999.90;999.90;;;;;;;15.23;100.00;95392.22;5130671;28;20221;-61
2021/06/16 01:21:47;;;;;;;1999.90;999.90;;;;;;;15.19;100.00;95388.72;5130724;28;20208;-61
2021/06/16 01:24:19;;;;;;;1999.90;999.90;;;;;;;15.17;100.00;95389.03;5130783;28;20195;-61
2021/06/16 01:26:51;;;;;;;1999.90;999.90;;;;;;;15.11;100.00;95390.34;5131226;28;20195;-61
2021/06/16 01:29:22;;;;;;;1999.90;999.90;;;;;;;15.21;100.00;95391.78;5130821;28;20208;-61
2021/06/16 01:31:51;;;;;;;1999.90;999.90;;;;;;;15.24;100.00;95386.66;5130722;28;20670;-59
2021/06/16 01:34:22;;;;;;;1999.90;999.90;;;;;;;15.28;100.00;95395.41;5130498;28;20190;-60
2021/06/16 01:36:51;;;;;;;1999.90;999.90;;;;;;;15.33;100.00;95392.56;5130566;28;20201;-58
2021/06/16 01:39:21;;;;;;;1999.90;999.90;;;;;;;15.40;100.00;95392.78;5130732;28;20226;-60
2021/06/16 01:41:52;;;;;;;1999.90;999.90;;;;;;;15.37;100.00;95392.69;5130766;28;20201;-60
2021/06/16 01:44:21;;;;;;;1999.90;999.90;;;;;;;15.36;100.00;95389.28;5130760;28;20259;-61
2021/06/16 01:46:51;;;;;;;1999.90;999.90;;;;;;;15.49;100.00;95396.06;5130378;28;20190;-60
2021/06/16 01:49:20;;;;;;;1999.90;999.90;;;;;;;15.58;100.00;95390.00;5130675;28;20195;-61
2021/06/16 01:51:48;;;;;;;1999.90;999.90;;;;;;;15.48;100.00;95378.84;5130402;28;20195;-60
2021/06/16 01:54:17;;;;;;;1999.90;999.90;;;;;;;15.48;100.00;95383.31;5130390;28;20198;-61
2021/06/16 01:56:47;;;;;;;1999.90;999.90;;;;;;;15.60;100.00;95379.94;5131462;27;20191;-60
2021/06/16 01:59:17;;;;;;;1999.90;999.90;;;;;;;15.60;100.00;95382.56;5133925;27;20604;-61
2021/06/16 02:01:48;;;;;;;1999.90;999.90;;;;;;;15.58;100.00;95390.78;5134322;27;20218;-60
2021/06/16 02:04:15;;;;;;;1999.90;999.90;;;;;;;15.64;100.00;95386.09;5134326;27;20235;-59
2021/06/16 02:06:44;;;;;;;1999.90;999.90;;;;;;;15.76;99.38;95388.69;5134116;27;20195;-60
2021/06/16 02:09:16;;;;;;;1999.90;999.90;;;;;;;15.83;99.15;95400.16;5134064;27;20207;-61
2021/06/16 02:11:44;;;;;;;1999.90;999.90;;;;;;;15.95;98.92;95399.38;5133727;27;20279;-60
2021/06/16 02:14:14;;;;;;;1999.90;999.90;;;;;;;15.94;99.29;95395.22;5134200;27;20205;-59
2021/06/16 02:16:48;;;;;;;1999.90;999.90;;;;;;;15.96;98.96;95398.28;5133824;27;20186;-61
2021/06/16 02:19:17;;;;;;;1999.90;999.90;;;;;;;16.00;98.65;95398.38;5133724;27;20234;-61
2021/06/16 02:21:45;;;;;;;1999.90;999.90;;;;;;;15.90;98.27;95391.72;5133748;27;20213;-61
2021/06/16 02:24:13;;;;;;;1999.90;999.90;;;;;;;16.07;97.70;95394.13;5133616;27;20195;-60
2021/06/16 02:26:41;;;;;;;1999.90;999.90;;;;;;;16.01;97.34;95394.69;5134143;27;20247;-61
2021/06/16 02:29:10;;;;;;;1999.90;999.90;;;;;;;15.85;97.90;95389.34;5133826;27;20190;-60
2021/06/16 02:31:40;;;;;;;1999.90;999.90;;;;;;;15.92;96.83;95392.19;5133567;27;20190;-60
2021/06/16 02:34:09;;;;;;;1999.90;999.90;;;;;;;15.88;97.51;95386.06;5133648;27;20213;-60
2021/06/16 02:36:39;;;;;;;1999.90;999.90;;;;;;;15.90;97.08;95379.41;5133496;27;20213;-60
2021/06/16 02:39:12;;;;;;;1999.90;999.90;;;;;;;15.92;97.10;95377.22;5133259;27;20222;-61
2021/06/16 02:41:40;;;;;;;1999.90;999.90;;;;;;;15.99;97.43;95381.88;5133380;27;20199;-60
2021/06/16 02:44:08;;;;;;;1999.90;999.90;;;;;;;15.85;97.75;95387.47;5133314;27;20193;-60
2021/06/16 02:46:37;;;;;;;1999.90;999.90;;;;;;;15.79;98.62;95383.53;5133146;27;20643;-60
2021/06/16 02:49:07;;;;;;;1999.90;999.90;;;;;;;15.85;97.76;95397.19;5133224;27;20565;-61
2021/06/16 02:51:39;;;;;;;1999.90;999.90;;;;;;;15.92;97.94;95392.19;5133405;27;20202;-61
2021/06/16 02:54:09;;;;;;;1999.90;999.90;;;;;;;15.73;97.98;95387.50;5133222;27;20195;-59
2021/06/16 02:56:38;;;;;;;1999.90;999.90;;;;;;;15.63;98.56;95392.41;5133246;27;20201;-61
2021/06/16 02:59:07;;;;;;;1999.90;999.90;;;;;;;15.73;98.18;95395.34;5133057;27;20230;-60
2021/06/16 03:01:35;;;;;;;1999.90;999.90;;;;;;;15.76;97.93;95401.78;5132758;27;20210;-60
2021/06/16 03:04:03;;;;;;;1999.90;999.90;;;;;;;15.81;97.11;95401.56;5132933;27;20205;-60
2021/06/16 03:06:31;;;;;;;1999.90;999.90;;;;;;;15.82;97.79;95403.88;5132875;27;20193;-61
2021/06/16 03:09:01;;;;;;;1999.90;999.90;;;;;;;15.80;97.11;95400.03;5132703;27;20191;-60
2021/06/16 03:11:33;;;;;;;1999.90;999.90;;;;;;;15.62;98.01;95404.75;5132395;27;20226;-60
2021/06/16 03:14:02;;;;;;;1999.90;999.90;;;;;;;15.66;98.03;95404.84;5132843;27;20649;-61
2021/06/16 03:16:30;;;;;;;1999.90;999.90;;;;;;;15.84;96.68;95414.78;5132799;27;20209;-59
2021/06/16 03:18:58;;;;;;;1999.90;999.90;;;;;;;15.85;96.92;95405.06;5132659;27;20627;-60
2021/06/16 03:21:26;;;;;;;1999.90;999.90;;;;;;;15.79;97.16;95419.50;5132894;27;20691;-60
2021/06/16 03:23:54;;;;;;;1999.90;999.90;;;;;;;15.89;96.74;95417.16;5132695;27;20191;-61
2021/06/16 03:26:27;;;;;;;1999.90;999.90;;;;;;;15.92;97.15;95413.91;5132521;27;20198;-60
2021/06/16 03:28:56;;;;;;;1999.90;999.90;;;;;;;15.90;98.31;95412.69;5132518;27;20190;-59
2021/06/16 03:31:24;;;;;;;1999.90;999.90;;;;;;;15.90;98.05;95410.84;5132361;27;20566;-60
2021/06/16 03:33:53;;;;;;;1999.90;999.90;;;;;;;15.90;98.72;95415.31;5132497;27;20190;-60
2021/06/16 03:36:21;;;;;;;1999.90;999.90;;;;;;;15.89;98.87;95419.03;5132347;27;20186;-60
2021/06/16 03:38:50;;;;;;;1999.90;999.90;;;;;;;15.81;99.53;95412.06;5132198;27;20222;-60
2021/06/16 03:41:38;;;;;;;1999.90;999.90;;;;;;;15.90;99.88;95405.59;5132084;27;20209;-60
2021/06/16 03:44:06;;;;;;;1999.90;999.90;;;;;;;15.99;99.87;95408.09;5131998;27;20547;-60
2021/06/16 03:46:37;;;;;;;1999.90;999.90;;;;;;;16.07;99.08;95415.09;5132316;27;20648;-60
2021/06/16 03:49:06;;;;;;;1999.90;999.90;;;;;;;16.15;99.31;95421.31;5132523;27;20210;-59
2021/06/16 03:51:35;;;;;;;1999.90;999.90;;;;;;;16.13;100.00;95421.66;5131959;27;20197;-60
2021/06/16 03:54:11;;;;;;;1999.90;999.90;;;;;;;16.21;99.95;95417.38;5131953;27;20201;-60
2021/06/16 03:56:41;;;;;;;1999.90;999.90;;;;;;;16.25;100.00;95418.22;5132222;27;20553;-60
2021/06/16 03:59:11;;;;;;;1999.90;999.90;;;;;;;16.38;100.00;95414.50;5132330;27;20229;-61
2021/06/16 04:01:39;;;;;;;1999.90;999.90;;;;;;;16.42;100.00;95425.88;5131572;27;20700;-61
2021/06/16 04:04:08;;;;;;;1999.90;999.90;;;;;;;16.50;100.00;95426.81;5131627;27;20190;-60
2021/06/16 04:06:37;;;;;;;1999.90;999.90;;;;;;;16.50;100.00;95430.22;5131680;27;20196;-60
2021/06/16 04:09:05;;;;;;;1999.90;999.90;;;;;;;16.49;100.00;95417.44;5131759;27;20194;-62
2021/06/16 04:11:33;;;;;;;1999.90;999.90;;;;;;;16.52;100.00;95422.00;5131771;27;20261;-61
2021/06/16 04:14:01;;;;;;;1999.90;999.90;;;;;;;16.67;99.60;95424.72;5131478;27;20576;-60
2021/06/16 04:16:29;;;;;;;1999.90;999.90;;;;;;;16.84;99.41;95428.91;5131518;27;20194;-60
2021/06/16 04:18:57;;;;;;;1999.90;999.90;;;;;;;16.94;97.44;95430.31;5130845;27;20233;-60
2021/06/16 04:21:24;;;;;;;1999.90;999.90;;;;;;;17.03;96.24;95436.97;5131472;27;20297;-61
2021/06/16 04:23:52;;;;;;;1999.90;999.90;;;;;;;17.23;94.21;95434.47;5131241;27;20204;-60
2021/06/16 04:26:21;;;;;;;1999.90;999.90;;;;;;;17.46;91.56;95436.19;5131395;27;20190;-59
2021/06/16 04:28:49;;;;;;;1999.90;999.90;;;;;;;17.83;90.03;95441.22;5131242;27;20201;-62
2021/06/16 04:31:18;;;;;;;1999.90;999.90;;;;;;;18.14;88.47;95440.41;5131029;27;20190;-60
2021/06/16 04:33:46;;;;;;;1999.90;999.90;;;;;;;18.36;87.89;95440.53;5131198;27;20225;-60
2021/06/16 04:36:13;;;;;;;1999.90;999.90;;;;;;;18.71;84.32;95435.28;5130798;27;20186;-61
2021/06/16 04:38:41;;;;;;;1999.90;999.90;;;;;;;19.06;82.90;95439.69;5130914;27;20195;-61
2021/06/16 04:41:08;;;;;;;1999.90;999.90;;;;;;;19.27;82.74;95437.47;5131023;27;20190;-61
2021/06/16 04:43:35;;;;;;;1999.90;999.90;;;;;;;19.31;82.08;95443.56;5130914;27;20592;-61
2021/06/16 04:46:02;;;;;;;1999.90;999.90;;;;;;;19.25;81.01;95448.34;5130926;27;20186;-61
2021/06/16 04:48:31;;;;;;;1999.90;999.90;;;;;;;18.69;83.40;95450.66;5131139;27;20273;-61
2021/06/16 04:50:58;;;;;;;1999.90;999.90;;;;;;;18.59;84.55;95448.56;5130921;27;20198;-61
2021/06/16 04:53:26;;;;;;;1999.90;999.90;;;;;;;18.10;86.35;95457.97;5131263;27;20572;-60
2021/06/16 04:55:53;;;;;;;1999.90;999.90;;;;;;;17.85;88.02;95452.91;5130801;27;20255;-61
2021/06/16 04:58:21;;;;;;;1999.90;999.90;;;;;;;17.83;88.86;95444.59;5130824;27;20767;-61
2021/06/16 05:00:49;;;;;;;1999.90;999.90;;;;;;;17.96;86.86;95448.66;5130820;27;20234;-61
2021/06/16 05:03:16;;;;;;;1999.90;999.90;;;;;;;17.89;87.15;95447.72;5130779;28;20282;-61
2021/06/16 05:05:45;;;;;;;1999.90;999.90;;;;;;;17.90;87.51;95454.53;5130878;28;20199;-60
2021/06/16 05:08:12;;;;;;;1999.90;999.90;;;;;;;17.92;87.57;95463.59;5130758;28;20201;-61
2021/06/16 05:10:39;;;;;;;1999.90;999.90;;;;;;;18.12;87.20;95468.94;5130529;28;20281;-62
2021/06/16 05:13:07;;;;;;;1999.90;999.90;;;;;;;18.18;87.30;95472.84;5130641;28;20190;-61
2021/06/16 05:15:34;;;;;;;1999.90;999.90;;;;;;;18.27;86.35;95476.81;5130648;28;20194;-61
2021/06/16 05:18:03;;;;;;;1999.90;999.90;;;;;;;18.45;85.97;95482.44;5130825;28;20250;-62
2021/06/16 05:20:31;;;;;;;1999.90;999.90;;;;;;;18.70;85.75;95481.13;5130532;28;20222;-62
2021/06/16 05:23:01;;;;;;;1999.90;999.90;;;;;;;19.28;85.21;95481.88;5130557;28;20664;-62
2021/06/16 05:25:29;;;;;;;1999.90;999.90;;;;;;;19.74;82.48;95474.81;5130991;28;20186;-62
2021/06/16 05:27:56;;;;;;;1999.90;999.90;;;;;;;20.08;80.16;95482.88;5130659;28;20216;-61
2021/06/16 05:30:24;;;;;;;1999.90;999.90;;;;;;;20.49;79.48;95495.22;5130771;27;20190;-62
2021/06/16 05:32:54;;;;;;;1999.90;999.90;;;;;;;20.71;78.41;95477.81;5133626;27;20534;-62
2021/06/16 05:35:21;;;;;;;1999.90;999.90;;;;;;;20.72;77.38;95489.13;5134680;27;20744;-61
2021/06/16 05:37:48;;;;;;;1999.90;999.90;;;;;;;21.03;78.06;95488.75;5134535;27;20199;-62
2021/06/16 05:40:18;;;;;;;1999.90;999.90;;;;;;;21.19;75.56;95478.78;5134489;27;20236;-62
2021/06/16 05:42:45;;;;;;;1999.90;999.90;;;;;;;21.29;75.23;95480.78;5134462;27;20190;-62
2021/06/16 05:45:13;;;;;;;1999.90;999.90;;;;;;;21.17;73.16;95481.00;5134400;27;20190;-62
2021/06/16 05:47:41;;;;;;;1999.90;999.90;;;;;;;20.83;72.20;95482.84;5134432;27;20183;-62
2021/06/16 05:50:09;;;;;;;1999.90;999.90;;;;;;;20.95;73.66;95471.28;5134431;27;20661;-62
2021/06/16 05:52:36;;;;;;;1999.90;999.90;;;;;;;21.10;72.02;95480.91;5134114;27;20581;-62
2021/06/16 05:55:04;;;;;;;1999.90;999.90;;;;;;;21.07;73.11;95465.75;5134144;27;20202;-62
2021/06/16 05:57:33;;;;;;;1999.90;999.90;;;;;;;21.19;71.77;95462.91;5134194;27;20201;-61
2021/06/16 06:03:22;;;;;;;1999.90;999.90;;;;;;;21.68;70.89;95483.03;5134565;27;20289;-61
2021/06/16 06:05:49;;;;;;;1999.90;999.90;;;;;;;21.46;70.98;95480.22;5134246;27;20237;-62
2021/06/16 06:08:17;;;;;;;1999.90;999.90;;;;;;;21.49;70.78;95484.00;5134227;27;20194;-62
2021/06/16 06:10:44;;;;;;;1999.90;999.90;;;;;;;21.46;71.32;95484.72;5134109;27;20202;-61
2021/06/16 06:13:12;;;;;;;1999.90;999.90;;;;;;;21.48;70.98;95480.59;5133816;27;20190;-63
2021/06/16 06:15:42;;;;;;;1999.90;999.90;;;;;;;21.34;70.90;95487.63;5134336;27;20191;-62
2021/06/16 06:18:09;;;;;;;1999.90;999.90;;;;;;;21.14;72.59;95487.03;5133846;27;20191;-62
2021/06/16 06:20:36;;;;;;;1999.90;999.90;;;;;;;21.07;71.79;95486.16;5133936;27;20252;-62
2021/06/16 06:23:04;;;;;;;1999.90;999.90;;;;;;;21.17;73.31;95474.97;5133803;27;20201;-61
2021/06/16 06:25:31;;;;;;;1999.90;999.90;;;;;;;21.49;71.92;95476.06;5133744;27;20194;-62
2021/06/16 06:27:58;;;;;;;1999.90;999.90;;;;;;;21.51;72.34;95481.75;5133594;27;20190;-62
2021/06/16 06:30:27;;;;;;;1999.90;999.90;;;;;;;21.54;72.31;95482.91;5133604;27;20197;-62
2021/06/16 06:32:54;;;;;;;1999.90;999.90;;;;;;;21.18;72.95;95484.41;5133971;27;20202;-62
2021/06/16 06:35:22;;;;;;;1999.90;999.90;;;;;;;21.12;74.53;95497.16;5133836;27;20194;-62
2021/06/16 06:37:49;;;;;;;1999.90;999.90;;;;;;;21.09;73.59;95497.88;5133505;27;20580;-62
2021/06/16 06:40:16;;;;;;;1999.90;999.90;;;;;;;21.18;74.65;95495.75;5133304;27;20708;-62
2021/06/16 06:42:43;;;;;;;1999.90;999.90;;;;;;;21.40;74.23;95502.81;5132772;27;20221;-61
2021/06/16 06:45:11;;;;;;;1999.90;999.90;;;;;;;21.37;74.24;95505.41;5133650;27;20193;-61
2021/06/16 06:47:40;;;;;;;1999.90;999.90;;;;;;;21.52;74.41;95498.41;5133725;27;20712;-62
2021/06/16 06:50:13;;;;;;;1999.90;999.90;;;;;;;21.70;72.67;95510.66;5133326;27;20191;-62
2021/06/16 06:52:40;;;;;;;1999.90;999.90;;;;;;;21.81;73.72;95505.47;5133470;27;20199;-62
2021/06/16 06:55:09;;;;;;;1999.90;999.90;;;;;;;21.88;72.69;95508.94;5133093;27;20190;-61
2021/06/16 06:57:36;;;;;;;1999.90;999.90;;;;;;;21.97;72.75;95523.78;5133172;27;20583;-62
2021/06/16 07:00:05;;;;;;;1999.90;999.90;;;;;;;22.14;71.34;95528.47;5132897;27;20324;-61
2021/06/16 07:02:32;;;;;;;1999.90;999.90;;;;;;;21.89;74.19;95518.41;5133012;27;20195;-61
2021/06/16 07:05:00;;;;;;;1999.90;999.90;;;;;;;22.18;72.44;95524.72;5132785;27;20566;-62
2021/06/16 07:07:28;;;;;;;1999.90;999.90;;;;;;;22.39;72.15;95526.75;5132784;27;20661;-62
2021/06/16 07:09:55;;;;;;;1999.90;999.90;;;;;;;22.61;73.03;95514.44;5133113;27;20191;-61
2021/06/16 07:12:22;;;;;;;1999.90;999.90;;;;;;;23.22;66.43;95520.78;5132781;27;20237;-62
2021/06/16 07:14:52;;;;;;;1999.90;999.90;;;;;;;23.48;65.90;95517.88;5132786;27;20280;-62
2021/06/16 07:17:20;;;;;;;1999.90;999.90;;;;;;;23.41;67.67;95512.53;5132907;27;20273;-61
2021/06/16 07:19:47;;;;;;;1999.90;999.90;;;;;;;23.35;63.33;95509.50;5132396;27;20233;-61
2021/06/16 07:22:16;;;;;;;1999.90;999.90;;;;;;;23.36;64.67;95507.59;5132579;27;20199;-62
2021/06/16 07:24:43;;;;;;;1999.90;999.90;;;;;;;23.30;63.73;95506.44;5132863;27;20198;-61
2021/06/16 07:27:11;;;;;;;1999.90;999.90;;;;;;;23.12;64.41;95506.38;5132614;27;20202;-62
2021/06/16 07:29:38;;;;;;;1999.90;999.90;;;;;;;23.11;64.10;95502.94;5132604;27;20190;-63
2021/06/16 07:32:07;;;;;;;1999.90;999.90;;;;;;;23.05;65.38;95496.50;5132477;27;20197;-62
2021/06/16 07:34:35;;;;;;;1999.90;999.90;;;;;;;23.06;64.40;95498.00;5132364;27;20193;-62
2021/06/16 07:37:02;;;;;;;1999.90;999.90;;;;;;;22.84;65.34;95496.41;5132601;27;20209;-62
2021/06/16 07:39:31;;;;;;;1999.90;999.90;;;;;;;22.84;65.64;95501.72;5132200;27;20191;-62
2021/06/16 07:41:58;;;;;;;1999.90;999.90;;;;;;;23.01;64.12;95493.06;5132267;27;20204;-61
2021/06/16 07:44:25;;;;;;;1999.90;999.90;;;;;;;23.25;64.53;95486.34;5132303;27;20281;-62
2021/06/16 07:46:53;;;;;;;1999.90;999.90;;;;;;;23.26;64.10;95484.47;5132339;27;20186;-62
2021/06/16 07:49:21;;;;;;;1999.90;999.90;;;;;;;23.29;63.35;95481.81;5131978;27;20198;-62
2021/06/16 07:51:48;;;;;;;1999.90;999.90;;;;;;;23.34;63.64;95480.69;5132236;27;20229;-61
2021/06/16 07:54:15;;;;;;;1999.90;999.90;;;;;;;23.36;63.62;95484.47;5131152;27;20695;-62
2021/06/16 07:56:44;;;;;;;1999.90;999.90;;;;;;;23.12;63.38;95491.22;5131954;27;20194;-62
2021/06/16 07:59:14;;;;;;;1999.90;999.90;;;;;;;23.34;63.13;95483.34;5131868;27;20646;-62
2021/06/16 08:01:43;;;;;;;1999.90;999.90;;;;;;;23.48;61.59;95491.34;5131557;27;20238;-62
2021/06/16 08:04:10;;;;;;;1999.90;999.90;;;;;;;23.29;61.48;95500.38;5131973;27;20194;-62
2021/06/16 08:06:38;;;;;;;1999.90;999.90;;;;;;;23.18;61.46;95500.34;5131877;27;20281;-62
2021/06/16 08:09:06;;;;;;;1999.90;999.90;;;;;;;23.00;63.51;95510.13;5131576;27;20285;-62
2021/06/16 08:11:33;;;;;;;1999.90;999.90;;;;;;;23.31;64.37;95502.66;5131629;27;20717;-62
2021/06/16 08:14:02;;;;;;;1999.90;999.90;;;;;;;23.29;63.71;95507.56;5131859;27;20323;-62
2021/06/16 08:16:29;;;;;;;1999.90;999.90;;;;;;;23.36;62.46;95504.94;5131952;27;20235;-62
2021/06/16 08:18:57;;;;;;;1999.90;999.90;;;;;;;23.71;63.90;95505.03;5131896;27;20198;-62
2021/06/16 08:21:24;;;;;;;1999.90;999.90;;;;;;;23.82;61.84;95503.16;5131545;27;20305;-62
2021/06/16 08:23:52;;;;;;;1999.90;999.90;;;;;;;23.90;60.45;95504.72;5131912;27;20673;-62
2021/06/16 08:26:19;;;;;;;1999.90;999.90;;;;;;;23.72;61.51;95501.25;5131305;27;20270;-61
2021/06/16 08:28:47;;;;;;;1999.90;999.90;;;;;;;23.53;60.99;95501.59;5131277;27;20221;-62
2021/06/16 08:31:16;;;;;;;1999.90;999.90;;;;;;;23.32;63.03;95512.88;5131642;27;20263;-62
2021/06/16 08:33:43;;;;;;;1999.90;999.90;;;;;;;23.17;62.24;95516.63;5131270;27;20285;-62
2021/06/16 08:36:11;;;;;;;1999.90;999.90;;;;;;;23.51;62.08;95507.28;5131293;27;20277;-62
2021/06/16 08:38:38;;;;;;;1999.90;999.90;;;;;;;23.62;62.46;95523.22;5131266;27;20744;-62
2021/06/16 08:41:07;;;;;;;1999.90;999.90;;;;;;;23.91;61.27;95516.81;5131179;27;20309;-62
2021/06/16 08:43:39;;;;;;;1999.90;999.90;;;;;;;24.52;61.68;95514.94;5131661;27;20649;-62
2021/06/16 08:46:08;;;;;;;1999.90;999.90;;;;;;;24.78;58.55;95527.81;5131345;27;20254;-61
2021/06/16 08:48:38;;;;;;;1999.90;999.90;;;;;;;24.50;57.53;95519.91;5131451;27;20275;-62
2021/06/16 08:51:07;;;;;;;1999.90;999.90;;;;;;;24.64;58.34;95513.78;5131008;27;20641;-62
2021/06/16 08:53:36;;;;;;;1999.90;999.90;;;;;;;24.95;55.95;95517.56;5130995;27;20251;-62
2021/06/16 08:56:04;;;;;;;1999.90;999.90;;;;;;;25.17;56.07;95524.28;5131271;27;20194;-61
2021/06/16 08:58:36;;;;;;;1999.90;999.90;;;;;;;25.52;56.36;95524.13;5130954;27;20237;-62
2021/06/16 09:01:05;;;;;;;1999.90;999.90;;;;;;;25.33;54.43;95523.84;5130921;27;20242;-62
2021/06/16 09:03:33;;;;;;;1999.90;999.90;;;;;;;25.07;54.34;95525.09;5130995;28;20196;-62
2021/06/16 09:06:07;;;;;;;1999.90;999.90;;;;;;;24.55;55.63;95530.13;5134077;27;20229;-62
2021/06/16 09:08:52;;;;;;;1999.90;999.90;;;;;;;24.42;55.96;95532.41;5137690;27;20618;-62
2021/06/16 09:11:19;;;;;;;1999.90;999.90;;;;;;;24.17;55.43;95521.03;5137715;27;20287;-62
2021/06/16 09:13:47;;;;;;;1999.90;999.90;;;;;;;24.40;56.81;95528.63;5138152;27;21064;-62
2021/06/16 09:16:29;;;;;;;1999.90;999.90;;;;;;;24.93;58.21;95527.81;5137647;27;20211;-62
2021/06/16 09:18:58;;;;;;;1999.90;999.90;;;;;;;25.26;54.44;95530.72;5138087;27;20684;-62
2021/06/16 09:21:40;;;;;;;1999.90;999.90;;;;;;;25.34;54.99;95536.78;5137533;27;20261;-62
2021/06/16 09:24:09;;;;;;;1999.90;999.90;;;;;;;25.43;55.66;95539.78;5137743;27;20221;-63
2021/06/16 09:26:37;;;;;;;1999.90;999.90;;;;;;;25.48;52.61;95541.28;5137618;27;20330;-62
2021/06/16 09:29:06;;;;;;;1999.90;999.90;;;;;;;25.41;52.95;95544.72;5137592;27;20232;-61
2021/06/16 09:31:38;;;;;;;1999.90;999.90;;;;;;;25.55;51.16;95542.03;5137611;27;20194;-62
2021/06/16 09:34:12;;;;;;;1999.90;999.90;;;;;;;25.67;51.36;95544.25;5137970;27;20221;-62
2021/06/16 09:36:52;;;;;;;1999.90;999.90;;;;;;;25.63;51.41;95545.41;5137873;27;20194;-61
2021/06/16 09:39:21;;;;;;;1999.90;999.90;;;;;;;25.92;50.69;95543.34;5137432;27;20277;-62
2021/06/16 09:41:56;;;;;;;1999.90;999.90;;;;;;;25.99;49.48;95535.31;5137308;27;20265;-62
2021/06/16 09:44:44;;;;;;;1999.90;999.90;;;;;;;26.05;48.43;95531.09;5137631;27;20263;-63
2021/06/16 09:47:14;;;;;;;1999.90;999.90;;;;;;;26.51;48.92;95536.81;5137819;27;20624;-62
2021/06/16 09:49:53;;;;;;;1999.90;999.90;;;;;;;26.26;48.30;95551.50;5137202;27;20237;-61
2021/06/16 09:52:33;;;;;;;1999.90;999.90;;;;;;;26.16;49.77;95542.41;5137146;27;20198;-62
2021/06/16 09:55:02;;;;;;;1999.90;999.90;;;;;;;26.02;49.22;95550.50;5137710;27;20232;-62
2021/06/16 09:57:29;;;;;;;1999.90;999.90;;;;;;;26.19;50.39;95548.88;5137135;27;20246;-62
2021/06/16 10:00:02;;;;;;;1999.90;999.90;;;;;;;26.30;46.64;95552.97;5137106;27;20263;-62
2021/06/16 10:02:30;;;;;;;1999.90;999.90;;;;;;;26.22;48.15;95556.84;5137026;27;20218;-62
2021/06/16 10:04:59;;;;;;;1999.90;999.90;;;;;;;26.09;46.69;95556.53;5137473;27;20668;-62
2021/06/16 10:07:27;;;;;;;1999.90;999.90;;;;;;;25.89;46.65;95562.75;5137167;27;20665;-62
2021/06/16 10:09:59;;;;;;;1999.90;999.90;;;;;;;25.66;49.05;95569.34;5136999;27;20251;-62
2021/06/16 10:12:29;;;;;;;1999.90;999.90;;;;;;;25.61;48.63;95561.00;5136695;27;20808;-62
2021/06/16 10:14:57;;;;;;;1999.90;999.90;;;;;;;25.91;49.10;95550.56;5137055;27;20251;-61
2021/06/16 10:17:25;;;;;;;1999.90;999.90;;;;;;;26.26;48.36;95562.91;5134831;27;20218;-61
2021/06/16 10:19:53;;;;;;;1999.90;999.90;;;;;;;26.32;46.16;95555.25;5133932;27;20191;-62
2021/06/16 10:22:21;;;;;;;1999.90;999.90;;;;;;;26.12;47.64;95555.00;5134123;27;20226;-62
2021/06/16 10:24:50;;;;;;;1999.90;999.90;;;;;;;26.24;47.48;95554.56;5133738;27;20260;-63
2021/06/16 10:27:25;;;;;;;1999.90;999.90;;;;;;;26.36;48.54;95556.75;5133675;27;20190;-61
2021/06/16 10:29:55;;;;;;;1999.90;999.90;;;;;;;26.34;46.47;95552.97;5133691;27;20679;-62
2021/06/16 10:32:22;;;;;;;1999.90;999.90;;;;;;;26.48;47.50;95558.16;5133817;27;20198;-62
2021/06/16 10:34:57;;;;;;;1999.90;999.90;;;;;;;26.44;47.69;95552.88;5133783;27;20191;-62
2021/06/16 10:37:26;;;;;;;1999.90;999.90;;;;;;;26.08;48.00;95560.34;5134030;27;20233;-61
2021/06/16 10:40:28;;;;;;;1999.90;999.90;;;;;;;25.79;49.83;95560.91;5133486;27;20226;-61
2021/06/16 10:43:30;;;;;;;1999.90;999.90;;;;;;;25.55;48.97;95568.66;5115070;27;20550;-59
2021/06/16 10:46:00;;;;;;;1999.90;999.90;;;;;;;25.50;49.02;95566.38;5030065;28;20197;-61
2021/06/16 10:48:58;;;;;;;1999.90;999.90;;;;;;;25.92;47.52;95560.06;5114248;27;20194;-62
2021/06/16 10:51:31;;;;;;;1999.90;999.90;;;;;;;26.04;47.18;95556.19;5133681;27;20201;-62
2021/06/16 10:54:20;;;;;;;1999.90;999.90;;;;;;;26.10;45.73;95554.66;5133277;27;20206;-61
2021/06/16 10:56:49;;;;;;;1999.90;999.90;;;;;;;26.36;46.68;95554.06;5133126;27;20717;-61
2021/06/16 10:59:59;;;;;;;1999.90;999.90;;;;;;;26.36;46.67;95546.06;5133418;27;20201;-62
2021/06/16 11:03:01;;;;;;;1999.90;999.90;;;;;;;26.40;46.72;95546.81;5132957;27;20279;-61
2021/06/16 11:05:34;;;;;;;1999.90;999.90;;;;;;;26.43;46.43;95551.34;5133301;27;20750;-61
2021/06/16 11:08:03;;;;;;;1999.90;999.90;;;;;;;26.42;46.79;95543.75;5133089;27;20194;-62